sensor_id;sensor_type;location;lat;lon;timestamp;P1;durP1;ratioP1;P2;durP2;ratioP2
10641;SDS011;5369;49.586;8.646;2023-01-28T00:02:08;5.17;;;4.67;;
10641;SDS011;5369;49.586;8.646;2023-01-28T00:04:37;5.53;;;4.90;;
10641;SDS011;5369;49.586;8.646;2023-01-28T00:07:04;4.63;;;4.23;;
10641;SDS011;5369;49.586;8.646;2023-01-28T00:09:30;4.37;;;3.97;;
10641;SDS011;5369;49.586;8.646;2023-01-28T00:11:56;4.83;;;4.43;;
10641;SDS011;5369;49.586;8.646;2023-01-28T00:14:23;4.40;;;4.00;;
10641;SDS011;5369;49.586;8.646;2023-01-28T00:16:49;5.00;;;4.23;;
10641;SDS011;5369;49.586;8.646;2023-01-28T00:19:15;5.73;;;4.57;;
10641;SDS011;5369;49.586;8.646;2023-01-28T00:21:41;5.70;;;4.40;;
10641;SDS011;5369;49.586;8.646;2023-01-28T00:24:07;5.17;;;4.67;;
10641;SDS011;5369;49.586;8.646;2023-01-28T00:26:34;5.50;;;5.00;;
10641;SDS011;5369;49.586;8.646;2023-01-28T00:29:00;5.30;;;4.70;;
10641;SDS011;5369;49.586;8.646;2023-01-28T00:31:27;5.37;;;4.50;;
10641;SDS011;5369;49.586;8.646;2023-01-28T00:33:54;5.70;;;5.10;;
10641;SDS011;5369;49.586;8.646;2023-01-28T00:36:21;5.20;;;4.70;;
10641;SDS011;5369;49.586;8.646;2023-01-28T00:38:54;5.60;;;5.00;;
10641;SDS011;5369;49.586;8.646;2023-01-28T00:41:21;5.67;;;4.93;;
10641;SDS011;5369;49.586;8.646;2023-01-28T00:43:49;4.90;;;4.30;;
10641;SDS011;5369;49.586;8.646;2023-01-28T00:46:16;5.43;;;4.87;;
10641;SDS011;5369;49.586;8.646;2023-01-28T00:48:42;5.17;;;4.40;;
10641;SDS011;5369;49.586;8.646;2023-01-28T00:51:11;4.67;;;4.17;;
10641;SDS011;5369;49.586;8.646;2023-01-28T00:53:37;4.40;;;4.00;;
10641;SDS011;5369;49.586;8.646;2023-01-28T00:56:04;4.90;;;4.07;;
10641;SDS011;5369;49.586;8.646;2023-01-28T00:58:31;4.93;;;3.90;;
10641;SDS011;5369;49.586;8.646;2023-01-28T01:01:11;4.47;;;3.77;;
10641;SDS011;5369;49.586;8.646;2023-01-28T01:03:38;4.47;;;4.07;;
10641;SDS011;5369;49.586;8.646;2023-01-28T01:06:04;4.20;;;3.80;;
10641;SDS011;5369;49.586;8.646;2023-01-28T01:08:30;4.20;;;3.80;;
10641;SDS011;5369;49.586;8.646;2023-01-28T01:11:02;4.93;;;4.17;;
10641;SDS011;5369;49.586;8.646;2023-01-28T01:13:30;4.97;;;4.20;;
10641;SDS011;5369;49.586;8.646;2023-01-28T01:16:00;5.43;;;4.70;;
10641;SDS011;5369;49.586;8.646;2023-01-28T01:18:26;4.40;;;4.00;;
10641;SDS011;5369;49.586;8.646;2023-01-28T01:20:53;4.27;;;3.87;;
10641;SDS011;5369;49.586;8.646;2023-01-28T01:23:26;4.03;;;3.63;;
10641;SDS011;5369;49.586;8.646;2023-01-28T01:25:53;4.30;;;3.90;;
10641;SDS011;5369;49.586;8.646;2023-01-28T01:28:19;6.07;;;3.87;;
10641;SDS011;5369;49.586;8.646;2023-01-28T01:30:46;3.80;;;3.50;;
10641;SDS011;5369;49.586;8.646;2023-01-28T01:33:12;4.10;;;3.50;;
10641;SDS011;5369;49.586;8.646;2023-01-28T01:35:38;3.80;;;3.40;;
10641;SDS011;5369;49.586;8.646;2023-01-28T01:38:05;4.00;;;3.60;;
10641;SDS011;5369;49.586;8.646;2023-01-28T01:40:31;4.00;;;3.60;;
10641;SDS011;5369;49.586;8.646;2023-01-28T01:42:59;3.43;;;3.13;;
10641;SDS011;5369;49.586;8.646;2023-01-28T01:45:25;4.17;;;3.63;;
10641;SDS011;5369;49.586;8.646;2023-01-28T01:50:43;3.90;;;3.30;;
10641;SDS011;5369;49.586;8.646;2023-01-28T01:53:13;3.67;;;3.17;;
10641;SDS011;5369;49.586;8.646;2023-01-28T01:55:42;3.07;;;2.77;;
10641;SDS011;5369;49.586;8.646;2023-01-28T01:58:11;3.27;;;2.97;;
10641;SDS011;5369;49.586;8.646;2023-01-28T02:00:38;3.53;;;3.17;;
10641;SDS011;5369;49.586;8.646;2023-01-28T02:03:05;3.58;;;3.28;;
10641;SDS011;5369;49.586;8.646;2023-01-28T02:05:31;3.30;;;3.00;;
10641;SDS011;5369;49.586;8.646;2023-01-28T02:07:58;4.00;;;3.40;;
10641;SDS011;5369;49.586;8.646;2023-01-28T02:10:45;4.57;;;3.70;;
10641;SDS011;5369;49.586;8.646;2023-01-28T02:13:12;3.60;;;3.30;;
10641;SDS011;5369;49.586;8.646;2023-01-28T02:15:40;3.33;;;3.00;;
10641;SDS011;5369;49.586;8.646;2023-01-28T02:18:07;3.97;;;3.33;;
10641;SDS011;5369;49.586;8.646;2023-01-28T02:34:50;3.40;;;3.03;;
10641;SDS011;5369;49.586;8.646;2023-01-28T02:36:58;3.47;;;3.07;;
10641;SDS011;5369;49.586;8.646;2023-01-28T02:39:29;3.90;;;3.40;;
10641;SDS011;5369;49.586;8.646;2023-01-28T02:42:14;3.00;;;2.70;;
10641;SDS011;5369;49.586;8.646;2023-01-28T02:44:42;3.20;;;2.90;;
10641;SDS011;5369;49.586;8.646;2023-01-28T02:47:09;3.47;;;3.10;;
10641;SDS011;5369;49.586;8.646;2023-01-28T02:49:55;3.63;;;3.23;;
10641;SDS011;5369;49.586;8.646;2023-01-28T02:55:38;3.60;;;3.30;;
10641;SDS011;5369;49.586;8.646;2023-01-28T03:01:08;3.43;;;3.10;;
10641;SDS011;5369;49.586;8.646;2023-01-28T03:03:49;3.47;;;3.17;;
10641;SDS011;5369;49.586;8.646;2023-01-28T03:06:18;5.97;;;3.23;;
10641;SDS011;5369;49.586;8.646;2023-01-28T03:08:46;3.33;;;2.73;;
10641;SDS011;5369;49.586;8.646;2023-01-28T03:11:35;3.90;;;2.70;;
10641;SDS011;5369;49.586;8.646;2023-01-28T03:14:22;2.67;;;2.47;;
10641;SDS011;5369;49.586;8.646;2023-01-28T03:17:09;2.93;;;2.53;;
10641;SDS011;5369;49.586;8.646;2023-01-28T03:19:55;2.60;;;2.40;;
10641;SDS011;5369;49.586;8.646;2023-01-28T03:22:41;3.10;;;2.80;;
10641;SDS011;5369;49.586;8.646;2023-01-28T03:25:29;2.70;;;2.50;;
10641;SDS011;5369;49.586;8.646;2023-01-28T03:28:15;2.50;;;2.30;;
10641;SDS011;5369;49.586;8.646;2023-01-28T03:31:06;3.73;;;2.70;;
10641;SDS011;5369;49.586;8.646;2023-01-28T03:33:55;3.03;;;2.70;;
10641;SDS011;5369;49.586;8.646;2023-01-28T03:36:41;2.90;;;2.60;;
10641;SDS011;5369;49.586;8.646;2023-01-28T03:39:34;3.20;;;2.90;;
10641;SDS011;5369;49.586;8.646;2023-01-28T03:42:03;3.60;;;2.90;;
10641;SDS011;5369;49.586;8.646;2023-01-28T03:44:30;3.30;;;3.00;;
10641;SDS011;5369;49.586;8.646;2023-01-28T03:47:16;4.27;;;3.17;;
10641;SDS011;5369;49.586;8.646;2023-01-28T03:49:43;3.97;;;3.57;;
10641;SDS011;5369;49.586;8.646;2023-01-28T03:52:13;3.50;;;3.20;;
10641;SDS011;5369;49.586;8.646;2023-01-28T03:54:40;4.30;;;3.67;;
10641;SDS011;5369;49.586;8.646;2023-01-28T03:57:06;4.93;;;3.40;;
10641;SDS011;5369;49.586;8.646;2023-01-28T03:59:33;4.73;;;4.00;;
10641;SDS011;5369;49.586;8.646;2023-01-28T04:02:00;4.60;;;3.67;;
10641;SDS011;5369;49.586;8.646;2023-01-28T04:04:28;3.93;;;3.47;;
10641;SDS011;5369;49.586;8.646;2023-01-28T04:06:57;5.30;;;3.63;;
10641;SDS011;5369;49.586;8.646;2023-01-28T04:09:23;3.60;;;3.30;;
10641;SDS011;5369;49.586;8.646;2023-01-28T04:12:08;4.00;;;3.60;;
10641;SDS011;5369;49.586;8.646;2023-01-28T04:14:41;4.00;;;3.60;;
10641;SDS011;5369;49.586;8.646;2023-01-28T04:17:14;4.23;;;3.50;;
10641;SDS011;5369;49.586;8.646;2023-01-28T04:19:41;3.40;;;3.10;;
10641;SDS011;5369;49.586;8.646;2023-01-28T04:22:09;4.00;;;3.30;;
10641;SDS011;5369;49.586;8.646;2023-01-28T04:24:35;4.30;;;3.40;;
10641;SDS011;5369;49.586;8.646;2023-01-28T04:27:02;4.03;;;3.40;;
10641;SDS011;5369;49.586;8.646;2023-01-28T04:29:28;3.27;;;2.90;;
10641;SDS011;5369;49.586;8.646;2023-01-28T04:31:59;4.03;;;3.40;;
10641;SDS011;5369;49.586;8.646;2023-01-28T04:34:34;3.83;;;3.40;;
10641;SDS011;5369;49.586;8.646;2023-01-28T04:37:20;3.53;;;3.23;;
10641;SDS011;5369;49.586;8.646;2023-01-28T04:40:08;4.37;;;3.67;;
10641;SDS011;5369;49.586;8.646;2023-01-28T04:42:58;3.57;;;3.20;;
10641;SDS011;5369;49.586;8.646;2023-01-28T04:45:45;4.40;;;3.10;;
10641;SDS011;5369;49.586;8.646;2023-01-28T04:48:38;3.10;;;2.80;;
10641;SDS011;5369;49.586;8.646;2023-01-28T04:51:28;4.10;;;3.20;;
10641;SDS011;5369;49.586;8.646;2023-01-28T04:54:12;3.67;;;3.00;;
10641;SDS011;5369;49.586;8.646;2023-01-28T04:56:39;3.30;;;3.00;;
10641;SDS011;5369;49.586;8.646;2023-01-28T04:59:06;4.43;;;2.70;;
10641;SDS011;5369;49.586;8.646;2023-01-28T05:01:33;3.37;;;3.07;;
10641;SDS011;5369;49.586;8.646;2023-01-28T05:03:59;3.83;;;3.20;;
10641;SDS011;5369;49.586;8.646;2023-01-28T05:06:30;5.20;;;3.10;;
10641;SDS011;5369;49.586;8.646;2023-01-28T05:09:00;4.43;;;3.40;;
10641;SDS011;5369;49.586;8.646;2023-01-28T05:11:26;3.80;;;3.20;;
10641;SDS011;5369;49.586;8.646;2023-01-28T05:13:57;4.40;;;3.27;;
10641;SDS011;5369;49.586;8.646;2023-01-28T05:16:29;4.10;;;3.27;;
10641;SDS011;5369;49.586;8.646;2023-01-28T05:18:56;3.07;;;2.77;;
10641;SDS011;5369;49.586;8.646;2023-01-28T05:21:22;3.00;;;2.80;;
10641;SDS011;5369;49.586;8.646;2023-01-28T05:23:56;3.67;;;3.20;;
10641;SDS011;5369;49.586;8.646;2023-01-28T05:26:22;3.63;;;3.00;;
10641;SDS011;5369;49.586;8.646;2023-01-28T05:28:48;3.67;;;3.10;;
10641;SDS011;5369;49.586;8.646;2023-01-28T05:31:15;4.30;;;3.40;;
10641;SDS011;5369;49.586;8.646;2023-01-28T05:33:42;4.47;;;3.60;;
10641;SDS011;5369;49.586;8.646;2023-01-28T05:36:10;4.30;;;3.50;;
10641;SDS011;5369;49.586;8.646;2023-01-28T05:38:37;3.37;;;3.07;;
10641;SDS011;5369;49.586;8.646;2023-01-28T05:41:03;3.83;;;3.30;;
10641;SDS011;5369;49.586;8.646;2023-01-28T05:43:30;4.43;;;3.10;;
10641;SDS011;5369;49.586;8.646;2023-01-28T05:46:25;3.60;;;3.00;;
10641;SDS011;5369;49.586;8.646;2023-01-28T05:49:04;3.60;;;3.30;;
10641;SDS011;5369;49.586;8.646;2023-01-28T05:51:47;4.43;;;3.23;;
10641;SDS011;5369;49.586;8.646;2023-01-28T05:54:17;3.63;;;3.30;;
10641;SDS011;5369;49.586;8.646;2023-01-28T05:56:44;3.30;;;3.00;;
10641;SDS011;5369;49.586;8.646;2023-01-28T05:59:11;3.60;;;3.30;;
10641;SDS011;5369;49.586;8.646;2023-01-28T06:01:40;4.90;;;3.30;;
10641;SDS011;5369;49.586;8.646;2023-01-28T06:04:06;3.93;;;3.43;;
10641;SDS011;5369;49.586;8.646;2023-01-28T06:06:32;5.00;;;3.43;;
10641;SDS011;5369;49.586;8.646;2023-01-28T06:09:00;4.90;;;3.97;;
10641;SDS011;5369;49.586;8.646;2023-01-28T06:11:29;4.87;;;3.53;;
10641;SDS011;5369;49.586;8.646;2023-01-28T06:13:59;3.93;;;3.47;;
10641;SDS011;5369;49.586;8.646;2023-01-28T06:16:44;4.43;;;3.60;;
10641;SDS011;5369;49.586;8.646;2023-01-28T06:19:43;5.00;;;3.70;;
10641;SDS011;5369;49.586;8.646;2023-01-28T06:22:09;4.50;;;3.73;;
10641;SDS011;5369;49.586;8.646;2023-01-28T06:24:35;4.03;;;3.63;;
10641;SDS011;5369;49.586;8.646;2023-01-28T06:27:02;4.57;;;4.07;;
10641;SDS011;5369;49.586;8.646;2023-01-28T06:29:28;5.10;;;4.17;;
10641;SDS011;5369;49.586;8.646;2023-01-28T06:31:54;5.03;;;4.10;;
10641;SDS011;5369;49.586;8.646;2023-01-28T06:34:20;5.60;;;4.37;;
10641;SDS011;5369;49.586;8.646;2023-01-28T06:36:46;4.90;;;4.03;;
10641;SDS011;5369;49.586;8.646;2023-01-28T06:39:12;5.17;;;4.10;;
10641;SDS011;5369;49.586;8.646;2023-01-28T06:41:38;4.70;;;3.90;;
10641;SDS011;5369;49.586;8.646;2023-01-28T06:44:05;4.53;;;3.60;;
10641;SDS011;5369;49.586;8.646;2023-01-28T06:46:31;4.80;;;4.10;;
10641;SDS011;5369;49.586;8.646;2023-01-28T06:48:57;5.00;;;4.37;;
10641;SDS011;5369;49.586;8.646;2023-01-28T06:51:23;4.70;;;4.20;;
10641;SDS011;5369;49.586;8.646;2023-01-28T06:53:49;5.63;;;4.23;;
10641;SDS011;5369;49.586;8.646;2023-01-28T06:56:15;6.03;;;4.60;;
10641;SDS011;5369;49.586;8.646;2023-01-28T06:58:42;4.80;;;4.30;;
10641;SDS011;5369;49.586;8.646;2023-01-28T07:01:08;4.97;;;4.43;;
10641;SDS011;5369;49.586;8.646;2023-01-28T07:03:35;6.90;;;4.40;;
10641;SDS011;5369;49.586;8.646;2023-01-28T07:06:01;4.80;;;4.30;;
10641;SDS011;5369;49.586;8.646;2023-01-28T07:08:27;5.00;;;4.50;;
10641;SDS011;5369;49.586;8.646;2023-01-28T07:10:54;4.97;;;4.40;;
10641;SDS011;5369;49.586;8.646;2023-01-28T07:13:20;5.87;;;4.63;;
10641;SDS011;5369;49.586;8.646;2023-01-28T07:15:46;5.40;;;4.23;;
10641;SDS011;5369;49.586;8.646;2023-01-28T07:18:13;4.63;;;4.00;;
10641;SDS011;5369;49.586;8.646;2023-01-28T07:20:40;4.80;;;4.30;;
10641;SDS011;5369;49.586;8.646;2023-01-28T07:23:06;4.67;;;4.23;;
10641;SDS011;5369;49.586;8.646;2023-01-28T07:25:32;6.43;;;4.50;;
10641;SDS011;5369;49.586;8.646;2023-01-28T07:27:58;5.03;;;4.40;;
10641;SDS011;5369;49.586;8.646;2023-01-28T07:30:24;5.17;;;4.53;;
10641;SDS011;5369;49.586;8.646;2023-01-28T07:32:54;4.73;;;4.23;;
10641;SDS011;5369;49.586;8.646;2023-01-28T07:35:20;5.20;;;4.40;;
10641;SDS011;5369;49.586;8.646;2023-01-28T07:37:50;5.03;;;4.23;;
10641;SDS011;5369;49.586;8.646;2023-01-28T07:40:16;4.77;;;4.27;;
10641;SDS011;5369;49.586;8.646;2023-01-28T07:42:42;5.67;;;4.43;;
10641;SDS011;5369;49.586;8.646;2023-01-28T07:45:10;6.17;;;4.30;;
10641;SDS011;5369;49.586;8.646;2023-01-28T07:47:36;5.50;;;4.63;;
10641;SDS011;5369;49.586;8.646;2023-01-28T07:50:02;5.33;;;4.60;;
10641;SDS011;5369;49.586;8.646;2023-01-28T07:52:29;4.87;;;4.03;;
10641;SDS011;5369;49.586;8.646;2023-01-28T07:54:55;5.40;;;4.30;;
10641;SDS011;5369;49.586;8.646;2023-01-28T07:57:21;5.40;;;4.20;;
10641;SDS011;5369;49.586;8.646;2023-01-28T07:59:50;5.37;;;4.70;;
10641;SDS011;5369;49.586;8.646;2023-01-28T08:02:16;5.53;;;4.67;;
10641;SDS011;5369;49.586;8.646;2023-01-28T08:04:43;6.43;;;4.47;;
10641;SDS011;5369;49.586;8.646;2023-01-28T08:07:09;5.30;;;4.50;;
10641;SDS011;5369;49.586;8.646;2023-01-28T08:09:35;6.57;;;4.90;;
10641;SDS011;5369;49.586;8.646;2023-01-28T08:12:01;5.70;;;4.80;;
10641;SDS011;5369;49.586;8.646;2023-01-28T08:14:27;7.60;;;5.97;;
10641;SDS011;5369;49.586;8.646;2023-01-28T08:16:53;7.37;;;5.70;;
10641;SDS011;5369;49.586;8.646;2023-01-28T08:19:20;6.40;;;5.33;;
10641;SDS011;5369;49.586;8.646;2023-01-28T08:21:46;6.80;;;5.70;;
10641;SDS011;5369;49.586;8.646;2023-01-28T08:24:12;6.93;;;5.53;;
10641;SDS011;5369;49.586;8.646;2023-01-28T08:26:38;6.87;;;5.70;;
10641;SDS011;5369;49.586;8.646;2023-01-28T08:29:05;9.80;;;5.57;;
10641;SDS011;5369;49.586;8.646;2023-01-28T08:31:31;6.60;;;4.70;;
10641;SDS011;5369;49.586;8.646;2023-01-28T08:33:58;7.60;;;4.80;;
10641;SDS011;5369;49.586;8.646;2023-01-28T08:36:24;7.13;;;4.83;;
10641;SDS011;5369;49.586;8.646;2023-01-28T08:38:51;6.70;;;5.20;;
10641;SDS011;5369;49.586;8.646;2023-01-28T08:41:20;9.30;;;6.80;;
10641;SDS011;5369;49.586;8.646;2023-01-28T08:43:46;8.87;;;6.10;;
10641;SDS011;5369;49.586;8.646;2023-01-28T08:46:12;6.83;;;5.70;;
10641;SDS011;5369;49.586;8.646;2023-01-28T08:48:38;8.50;;;5.37;;
10641;SDS011;5369;49.586;8.646;2023-01-28T08:51:05;6.33;;;5.03;;
10641;SDS011;5369;49.586;8.646;2023-01-28T08:53:31;7.43;;;6.03;;
10641;SDS011;5369;49.586;8.646;2023-01-28T08:55:57;7.10;;;5.57;;
10641;SDS011;5369;49.586;8.646;2023-01-28T08:58:23;8.37;;;5.33;;
10641;SDS011;5369;49.586;8.646;2023-01-28T09:00:49;7.63;;;5.90;;
10641;SDS011;5369;49.586;8.646;2023-01-28T09:03:16;7.73;;;5.17;;
10641;SDS011;5369;49.586;8.646;2023-01-28T09:05:42;6.53;;;5.27;;
10641;SDS011;5369;49.586;8.646;2023-01-28T09:08:09;6.33;;;5.03;;
10641;SDS011;5369;49.586;8.646;2023-01-28T09:10:36;6.33;;;4.97;;
10641;SDS011;5369;49.586;8.646;2023-01-28T09:13:13;6.20;;;5.00;;
10641;SDS011;5369;49.586;8.646;2023-01-28T09:15:39;7.40;;;4.90;;
10641;SDS011;5369;49.586;8.646;2023-01-28T09:18:05;5.50;;;4.83;;
10641;SDS011;5369;49.586;8.646;2023-01-28T09:20:32;5.60;;;4.53;;
10641;SDS011;5369;49.586;8.646;2023-01-28T09:22:59;5.50;;;4.53;;
10641;SDS011;5369;49.586;8.646;2023-01-28T09:25:25;5.80;;;4.53;;
10641;SDS011;5369;49.586;8.646;2023-01-28T09:27:52;6.43;;;4.80;;
10641;SDS011;5369;49.586;8.646;2023-01-28T09:30:18;5.50;;;4.90;;
10641;SDS011;5369;49.586;8.646;2023-01-28T09:32:44;7.47;;;4.80;;
10641;SDS011;5369;49.586;8.646;2023-01-28T09:35:10;6.17;;;4.43;;
10641;SDS011;5369;49.586;8.646;2023-01-28T09:37:36;7.00;;;4.80;;
10641;SDS011;5369;49.586;8.646;2023-01-28T09:40:03;7.73;;;4.80;;
10641;SDS011;5369;49.586;8.646;2023-01-28T09:42:34;5.60;;;5.00;;
10641;SDS011;5369;49.586;8.646;2023-01-28T09:47:50;5.57;;;4.63;;
10641;SDS011;5369;49.586;8.646;2023-01-28T09:50:19;6.60;;;4.90;;
10641;SDS011;5369;49.586;8.646;2023-01-28T09:52:48;7.97;;;5.10;;
10641;SDS011;5369;49.586;8.646;2023-01-28T09:58:03;7.20;;;5.10;;
10641;SDS011;5369;49.586;8.646;2023-01-28T10:05:37;5.93;;;4.30;;
10641;SDS011;5369;49.586;8.646;2023-01-28T10:08:24;7.00;;;4.77;;
10641;SDS011;5369;49.586;8.646;2023-01-28T10:13:32;6.00;;;4.63;;
10641;SDS011;5369;49.586;8.646;2023-01-28T10:18:40;6.33;;;4.57;;
10641;SDS011;5369;49.586;8.646;2023-01-28T10:21:14;5.40;;;4.50;;
10641;SDS011;5369;49.586;8.646;2023-01-28T10:23:45;6.67;;;4.73;;
10641;SDS011;5369;49.586;8.646;2023-01-28T10:26:21;7.23;;;4.87;;
10641;SDS011;5369;49.586;8.646;2023-01-28T10:28:50;5.53;;;4.33;;
10641;SDS011;5369;49.586;8.646;2023-01-28T10:31:18;6.00;;;4.10;;
10641;SDS011;5369;49.586;8.646;2023-01-28T10:33:45;6.60;;;4.30;;
10641;SDS011;5369;49.586;8.646;2023-01-28T10:36:11;5.10;;;4.27;;
10641;SDS011;5369;49.586;8.646;2023-01-28T10:38:37;5.90;;;4.10;;
10641;SDS011;5369;49.586;8.646;2023-01-28T10:41:04;5.03;;;4.27;;
10641;SDS011;5369;49.586;8.646;2023-01-28T10:43:34;7.63;;;4.20;;
10641;SDS011;5369;49.586;8.646;2023-01-28T10:48:29;7.73;;;4.70;;
10641;SDS011;5369;49.586;8.646;2023-01-28T10:50:56;5.93;;;4.37;;
10641;SDS011;5369;49.586;8.646;2023-01-28T10:53:33;6.50;;;4.70;;
10641;SDS011;5369;49.586;8.646;2023-01-28T10:56:00;5.10;;;4.30;;
10641;SDS011;5369;49.586;8.646;2023-01-28T10:58:27;6.10;;;4.40;;
10641;SDS011;5369;49.586;8.646;2023-01-28T11:01:05;5.17;;;4.00;;
10641;SDS011;5369;49.586;8.646;2023-01-28T11:03:32;6.10;;;4.30;;
10641;SDS011;5369;49.586;8.646;2023-01-28T11:06:01;5.07;;;3.90;;
10641;SDS011;5369;49.586;8.646;2023-01-28T11:08:28;4.60;;;3.83;;
10641;SDS011;5369;49.586;8.646;2023-01-28T11:10:54;5.10;;;4.43;;
10641;SDS011;5369;49.586;8.646;2023-01-28T11:13:25;7.00;;;4.20;;
10641;SDS011;5369;49.586;8.646;2023-01-28T11:16:14;8.50;;;4.33;;
10641;SDS011;5369;49.586;8.646;2023-01-28T11:18:39;4.90;;;3.70;;
10641;SDS011;5369;49.586;8.646;2023-01-28T11:21:06;5.67;;;4.30;;
10641;SDS011;5369;49.586;8.646;2023-01-28T11:23:44;5.17;;;4.30;;
10641;SDS011;5369;49.586;8.646;2023-01-28T11:26:28;5.10;;;4.30;;
10641;SDS011;5369;49.586;8.646;2023-01-28T11:28:56;6.43;;;3.97;;
10641;SDS011;5369;49.586;8.646;2023-01-28T11:31:22;4.30;;;3.77;;
10641;SDS011;5369;49.586;8.646;2023-01-28T11:33:53;6.10;;;3.90;;
10641;SDS011;5369;49.586;8.646;2023-01-28T11:36:22;5.80;;;4.10;;
10641;SDS011;5369;49.586;8.646;2023-01-28T11:39:31;4.93;;;3.90;;
10641;SDS011;5369;49.586;8.646;2023-01-28T11:41:38;6.43;;;4.60;;
10641;SDS011;5369;49.586;8.646;2023-01-28T11:44:19;5.47;;;4.03;;
10641;SDS011;5369;49.586;8.646;2023-01-28T11:46:56;6.97;;;4.40;;
10641;SDS011;5369;49.586;8.646;2023-01-28T11:57:41;3.93;;;3.40;;
10641;SDS011;5369;49.586;8.646;2023-01-28T12:03:21;4.60;;;3.57;;
10641;SDS011;5369;49.586;8.646;2023-01-28T12:05:54;5.20;;;3.50;;
10641;SDS011;5369;49.586;8.646;2023-01-28T12:08:25;7.63;;;5.50;;
10641;SDS011;5369;49.586;8.646;2023-01-28T12:18:30;6.43;;;4.77;;
10641;SDS011;5369;49.586;8.646;2023-01-28T12:21:04;5.83;;;3.97;;
10641;SDS011;5369;49.586;8.646;2023-01-28T12:26:02;6.10;;;3.13;;
10641;SDS011;5369;49.586;8.646;2023-01-28T12:36:28;3.57;;;3.10;;
10641;SDS011;5369;49.586;8.646;2023-01-28T12:41:36;6.37;;;3.33;;
10641;SDS011;5369;49.586;8.646;2023-01-28T12:44:07;9.27;;;6.30;;
10641;SDS011;5369;49.586;8.646;2023-01-28T12:46:40;5.63;;;3.23;;
10641;SDS011;5369;49.586;8.646;2023-01-28T12:51:35;4.40;;;3.77;;
10641;SDS011;5369;49.586;8.646;2023-01-28T12:56:52;3.33;;;2.90;;
10641;SDS011;5369;49.586;8.646;2023-01-28T13:01:50;3.23;;;2.50;;
10641;SDS011;5369;49.586;8.646;2023-01-28T13:06:49;5.00;;;3.40;;
10641;SDS011;5369;49.586;8.646;2023-01-28T13:09:18;5.60;;;3.60;;
10641;SDS011;5369;49.586;8.646;2023-01-28T13:11:46;3.67;;;3.10;;
10641;SDS011;5369;49.586;8.646;2023-01-28T13:14:13;4.60;;;2.90;;
10641;SDS011;5369;49.586;8.646;2023-01-28T13:16:40;3.77;;;3.10;;
10641;SDS011;5369;49.586;8.646;2023-01-28T13:19:07;4.10;;;3.07;;
10641;SDS011;5369;49.586;8.646;2023-01-28T13:21:34;4.93;;;3.30;;
10641;SDS011;5369;49.586;8.646;2023-01-28T13:29:07;4.13;;;3.63;;
10641;SDS011;5369;49.586;8.646;2023-01-28T13:31:38;4.73;;;3.43;;
10641;SDS011;5369;49.586;8.646;2023-01-28T13:34:06;5.00;;;3.90;;
10641;SDS011;5369;49.586;8.646;2023-01-28T13:36:43;5.93;;;4.30;;
10641;SDS011;5369;49.586;8.646;2023-01-28T13:41:40;4.73;;;3.53;;
10641;SDS011;5369;49.586;8.646;2023-01-28T13:47:14;6.00;;;4.30;;
10641;SDS011;5369;49.586;8.646;2023-01-28T13:54:34;8.00;;;5.60;;
10641;SDS011;5369;49.586;8.646;2023-01-28T13:57:08;4.87;;;4.30;;
10641;SDS011;5369;49.586;8.646;2023-01-28T13:59:53;4.57;;;3.70;;
10641;SDS011;5369;49.586;8.646;2023-01-28T14:02:38;4.93;;;4.07;;
10641;SDS011;5369;49.586;8.646;2023-01-28T14:07:52;7.00;;;4.90;;
10641;SDS011;5369;49.586;8.646;2023-01-28T14:10:33;5.60;;;4.43;;
10641;SDS011;5369;49.586;8.646;2023-01-28T14:18:22;4.70;;;4.20;;
10641;SDS011;5369;49.586;8.646;2023-01-28T14:20:50;5.23;;;3.80;;
10641;SDS011;5369;49.586;8.646;2023-01-28T14:23:18;5.10;;;4.40;;
10641;SDS011;5369;49.586;8.646;2023-01-28T14:25:55;7.30;;;5.60;;
10641;SDS011;5369;49.586;8.646;2023-01-28T14:28:29;6.83;;;5.47;;
10641;SDS011;5369;49.586;8.646;2023-01-28T14:31:06;6.03;;;5.27;;
10641;SDS011;5369;49.586;8.646;2023-01-28T14:33:35;5.73;;;5.17;;
10641;SDS011;5369;49.586;8.646;2023-01-28T14:36:02;4.53;;;3.60;;
10641;SDS011;5369;49.586;8.646;2023-01-28T14:38:29;4.33;;;3.60;;
10641;SDS011;5369;49.586;8.646;2023-01-28T14:40:57;5.13;;;3.90;;
10641;SDS011;5369;49.586;8.646;2023-01-28T14:43:24;5.93;;;3.70;;
10641;SDS011;5369;49.586;8.646;2023-01-28T14:45:55;4.47;;;3.80;;
10641;SDS011;5369;49.586;8.646;2023-01-28T14:53:47;6.93;;;4.37;;
10641;SDS011;5369;49.586;8.646;2023-01-28T14:56:39;6.00;;;4.40;;
10641;SDS011;5369;49.586;8.646;2023-01-28T14:59:23;48.80;;;6.60;;
10641;SDS011;5369;49.586;8.646;2023-01-28T15:01:55;21.97;;;5.90;;
10641;SDS011;5369;49.586;8.646;2023-01-28T15:04:31;5.67;;;4.63;;
10641;SDS011;5369;49.586;8.646;2023-01-28T15:07:14;6.43;;;4.90;;
10641;SDS011;5369;49.586;8.646;2023-01-28T15:09:41;8.37;;;5.13;;
10641;SDS011;5369;49.586;8.646;2023-01-28T15:12:07;8.07;;;4.60;;
10641;SDS011;5369;49.586;8.646;2023-01-28T15:14:33;6.57;;;4.33;;
10641;SDS011;5369;49.586;8.646;2023-01-28T15:17:00;12.30;;;5.13;;
10641;SDS011;5369;49.586;8.646;2023-01-28T15:19:27;10.77;;;4.97;;
10641;SDS011;5369;49.586;8.646;2023-01-28T15:22:01;9.83;;;5.63;;
10641;SDS011;5369;49.586;8.646;2023-01-28T15:24:27;6.57;;;4.53;;
10641;SDS011;5369;49.586;8.646;2023-01-28T15:26:54;14.47;;;4.83;;
10641;SDS011;5369;49.586;8.646;2023-01-28T15:29:24;6.67;;;5.70;;
10641;SDS011;5369;49.586;8.646;2023-01-28T15:31:50;4.90;;;4.30;;
10641;SDS011;5369;49.586;8.646;2023-01-28T15:34:18;5.90;;;4.57;;
10641;SDS011;5369;49.586;8.646;2023-01-28T15:36:44;8.77;;;6.63;;
10641;SDS011;5369;49.586;8.646;2023-01-28T15:39:16;12.93;;;9.70;;
10641;SDS011;5369;49.586;8.646;2023-01-28T15:41:44;21.67;;;16.53;;
10641;SDS011;5369;49.586;8.646;2023-01-28T15:44:23;8.53;;;5.70;;
10641;SDS011;5369;49.586;8.646;2023-01-28T15:46:56;4.30;;;3.57;;
10641;SDS011;5369;49.586;8.646;2023-01-28T15:49:24;5.70;;;4.00;;
10641;SDS011;5369;49.586;8.646;2023-01-28T15:51:52;7.63;;;5.50;;
10641;SDS011;5369;49.586;8.646;2023-01-28T15:54:18;4.60;;;3.87;;
10641;SDS011;5369;49.586;8.646;2023-01-28T15:56:45;4.03;;;3.40;;
10641;SDS011;5369;49.586;8.646;2023-01-28T16:01:41;3.90;;;3.53;;
10641;SDS011;5369;49.586;8.646;2023-01-28T16:06:49;5.20;;;4.70;;
10641;SDS011;5369;49.586;8.646;2023-01-28T16:09:33;5.77;;;4.43;;
10641;SDS011;5369;49.586;8.646;2023-01-28T16:12:10;5.70;;;5.00;;
10641;SDS011;5369;49.586;8.646;2023-01-28T16:17:19;4.93;;;3.80;;
10641;SDS011;5369;49.586;8.646;2023-01-28T16:19:48;5.03;;;3.73;;
10641;SDS011;5369;49.586;8.646;2023-01-28T16:22:17;6.30;;;4.13;;
10641;SDS011;5369;49.586;8.646;2023-01-28T16:24:48;8.10;;;5.60;;
10641;SDS011;5369;49.586;8.646;2023-01-28T16:27:21;10.23;;;6.00;;
10641;SDS011;5369;49.586;8.646;2023-01-28T16:29:47;6.87;;;5.10;;
10641;SDS011;5369;49.586;8.646;2023-01-28T16:32:30;7.47;;;5.20;;
10641;SDS011;5369;49.586;8.646;2023-01-28T16:34:59;6.33;;;5.13;;
10641;SDS011;5369;49.586;8.646;2023-01-28T16:37:25;6.00;;;4.47;;
10641;SDS011;5369;49.586;8.646;2023-01-28T16:39:52;6.07;;;4.57;;
10641;SDS011;5369;49.586;8.646;2023-01-28T16:42:18;5.07;;;4.20;;
10641;SDS011;5369;49.586;8.646;2023-01-28T16:44:44;4.97;;;4.00;;
10641;SDS011;5369;49.586;8.646;2023-01-28T16:47:10;4.87;;;4.37;;
10641;SDS011;5369;49.586;8.646;2023-01-28T16:49:37;7.00;;;5.20;;
10641;SDS011;5369;49.586;8.646;2023-01-28T16:52:04;8.48;;;5.90;;
10641;SDS011;5369;49.586;8.646;2023-01-28T16:54:31;7.95;;;6.13;;
10641;SDS011;5369;49.586;8.646;2023-01-28T16:56:57;8.97;;;5.93;;
10641;SDS011;5369;49.586;8.646;2023-01-28T16:59:24;9.20;;;6.07;;
10641;SDS011;5369;49.586;8.646;2023-01-28T17:01:50;8.40;;;5.37;;
10641;SDS011;5369;49.586;8.646;2023-01-28T17:04:16;5.07;;;4.07;;
10641;SDS011;5369;49.586;8.646;2023-01-28T17:06:43;6.07;;;4.67;;
10641;SDS011;5369;49.586;8.646;2023-01-28T17:09:12;6.33;;;4.93;;
10641;SDS011;5369;49.586;8.646;2023-01-28T17:11:39;6.70;;;4.80;;
10641;SDS011;5369;49.586;8.646;2023-01-28T17:14:06;6.27;;;5.20;;
10641;SDS011;5369;49.586;8.646;2023-01-28T17:16:32;6.53;;;4.87;;
10641;SDS011;5369;49.586;8.646;2023-01-28T17:18:58;8.00;;;5.30;;